KGCN/GCN METAR and TAF weather

Enter ICAO airport designator
Station Type Date Time Source
KGCN METAR 2022/01/29 10:54 UTC NOAA

KGCN 291054Z AUTO 07005KT 10SM CLR M01/M19 A3035 RMK AO2 SLP267 T10111194


Station Type Date Time Source
KGCN Decoded METAR 2022/01/29 10:54 UTC NOAA

GRAND CANYON NATL PARK AIRPORT , AZ, United States (KGCN) 35-57N 112-09W 2016M
Jan 29, 2022 - 05:54 AM EST / 2022.01.29 1054 UTC
Wind: from the ENE (070 degrees) at 6 MPH (5 KT):0
Visibility: 10 mile(s):0
Sky conditions: clear
Temperature: 30.0 F (-1.1 C)
Windchill: 23 F (-5 C):1
Dew Point: -2.9 F (-19.4 C)
Relative Humidity: 23%
Pressure (altimeter): 30.35 in. Hg (1027 hPa)
ob: KGCN 291054Z AUTO 07005KT 10SM CLR M01/M19 A3035 RMK AO2 SLP267 T10111194
cycle: 11

Station Type Date Time Source
KGCN TAF 2022/01/29 08:36 UTC NOAA

TAF
AMD KGCN 290735Z 2908/3006 05011KT P6SM FEW250
FM291800 08011G17KT P6SM FEW150 SCT250
FM300000 08006KT P6SM SCT150 BKN200

Example: see airport list